Terminal Aerodrome Forecast
Issued by NWS

Home | Current Version | Previous Version | Graphics & Text | Print | Product List | Glossary On
Versions: 1 2 3 4 5 6 7 8 9 10 11 12 13 14 15 16 17 18 19 20 21 22 23 24 25 26 27 28 29 30 31 32 33 34 35 36 37 38 39 40 41 42
000
FTUS43 KLOT 231700
TAFORD
TAF
KORD 231733Z 2318/2424 17012G18KT 6SM -SHRA BR SCT015 OVC040
      TEMPO 2318/2321 4SM -RA BR BKN012 OVC025
     FM232100 13012KT 2SM RA BR OVC007
     FM240300 15010KT 2SM RA BR OVC004
     FM240600 20008KT 1 1/2SM -RA BR OVC004
     FM241400 24015G22KT 3SM -RA BR SCT007 OVC015
     FM241700 25020G30KT 3SM -RASN SCT007 OVC012
     FM242000 27021G32KT 2SM -SN BKN007 OVC012=

USA.gov is the U.S. government's official web portal to all federal, state and local government web resources and services.